Scottish Airport Reports

Civil airfields updated at H+20 and H+50
RAF airfields updated at H+50 only

EGPD - Aberdeen
Distance from station: NNE 19mi, 31km
Updated: 19/10/2021 02:50
Clear
Clear
 Wind from WSW
Wind: WSW 18 mph , 30 km/h
Temperature: 15°C
Dew Point: 13°C
Humidity: 88%
Barometer: 1005 hPa
Clouds: Clear
Visibility: 6 miles , 10 km
2021/10/19 01:50 EGPD 190150Z AUTO 24016KT 9999 NCD 15/13 Q1005 NOSIG
EGPN - Dundee
Distance from station: SW 41mi, 66km
Updated: 18/10/2021 20:50
NOT Current
Partly cloudy
Partly cloudy
 Wind from W
Wind: W 2 mph , 4 km/h
Temperature: 15°C
Dew Point: 14°C
Humidity: 94%
Barometer: 1006 hPa
Clouds: Partly cloudy
Visibility: 6 miles , 10 km
Cloud details: Partly cloudy 1300 ft
Partly cloudy 2500 ft
2021/10/18 19:50 EGPN 181950Z 27002KT 9999 SCT013 SCT025 15/14 Q1006
 
EGQS - RAF Lossiemouth
Distance from station: NNW 63mi, 102km
Updated: 19/10/2021 02:50
Mostly cloudy
Mostly cloudy
 Wind from SSW
Wind: SSW 7 mph , 11 km/h
Temperature: 14°C
Dew Point: 11°C
Humidity: 82%
Barometer: 1004 hPa
Clouds: Mostly cloudy
Visibility: 6 miles , 10 km
Cloud details: Few Clouds 4800 ft
Mostly cloudy 22000 ft
2021/10/19 01:50 EGQS 190150Z 20006KT 9999 FEW048 BKN220 14/11 Q1004 RMK BLU
EGPE - Inverness
Distance from station: WNW 73mi, 117km
Updated: 19/10/2021 02:50
Mostly cloudy
Mostly cloudy
 Wind from varies
Wind: varies 2 mph , 4 km/h
Temperature: 13°C
Dew Point: 11°C
Humidity: 88%
Barometer: 1004 hPa
Clouds: Mostly cloudy
Visibility: 6 miles , 10 km
Cloud details: Mostly cloudy 4900 ft
2021/10/19 01:50 EGPE 190150Z VRB02KT 9999 BKN049 13/11 Q1004
 
EGPH - Edinburgh
Distance from station: SSW 77mi, 125km
Updated: 19/10/2021 02:50
Clear
Clear
 Wind from SW
Wind: SW 10 mph , 17 km/h
Temperature: 15°C
Dew Point: 13°C
Humidity: 88%
Barometer: 1007 hPa
Summary: Clear
Visibility: greater than 7 miles , 10 km
2021/10/19 01:50 EGPH 190150Z 22009KT CAVOK 15/13 Q1007
EGPC - Wick
Distance from station: NNW 107mi, 172km
Updated: 19/10/2021 02:50
Clear
Clear
 Wind from SSW
Wind: SSW 13 mph , 20 km/h
Temperature: 14°C
Dew Point: 12°C
Humidity: 88%
Barometer: 1003 hPa
Clouds: Clear
Visibility: 6 miles , 10 km
2021/10/19 01:50 EGPC 190150Z AUTO 21011KT 9999 NCD 14/12 Q1003
 
EGPF - Glasgow
Distance from station: SW 107mi, 172km
Updated: 19/10/2021 02:50
Partly cloudy
Partly cloudy
 Wind from varies
Wind: varies 3 mph , 6 km/h
Temperature: 12°C
Dew Point: 11°C
Humidity: 94%
Barometer: 1007 hPa
Clouds: Partly cloudy
Visibility: 6 miles , 10 km
Cloud details: Partly cloudy 2200 ft
2021/10/19 01:50 EGPF 190150Z AUTO VRB03KT 9999 SCT022 12/11 Q1007
EGPK - Prestwick
Distance from station: SW 130mi, 209km
Updated: 19/10/2021 02:50
Few Clouds
Few Clouds
 Wind from S
Wind: S 12 mph , 19 km/h
Temperature: 15°C
Dew Point: 14°C
Humidity: 94%
Barometer: 1006 hPa
Clouds: Few Clouds
Visibility: 6 miles , 10 km
Cloud details: Few Clouds 4200 ft
2021/10/19 01:50 EGPK 190150Z 17010KT 9999 FEW042 15/14 Q1006
 
EGPA - Kirkwall, Orkney
Distance from station: N 140mi, 225km
Updated: 19/10/2021 02:50
Few Clouds
Few Clouds
 Wind from S
Wind: S 8 mph , 13 km/h
Temperature: 12°C
Dew Point: 11°C
Humidity: 94%
Barometer: 1003 hPa
Clouds: Few Clouds
Visibility: 6 miles , 10 km
Cloud details: Few Clouds 4300 ft
2021/10/19 01:50 EGPA 190150Z AUTO 19007KT 9999 FEW043/// 12/11 Q1003
EGPO - Stornoway, Outer Hebrides
Distance from station: WNW 169mi, 273km
Updated: 19/10/2021 02:50
Mostly cloudy
Mostly cloudy
 Wind from S
Wind: S 18 mph , 30 km/h
Temperature: 14°C
Dew Point: 13°C
Humidity: 94%
Barometer: 1000 hPa
Clouds: Mostly cloudy
Visibility: 6 miles , 10 km
Cloud details: Partly cloudy 800 ft
Mostly cloudy 1200 ft
Mostly cloudy 2200 ft
2021/10/19 01:50 EGPO 190150Z AUTO 19016KT 9999 SCT008/// BKN012/// BKN022/// 14/13 Q1000
 
EGPI - Islay, Inner Hebrides
Distance from station: WSW 172mi, 276km
Updated: 19/10/2021 02:50
Mostly cloudy
Mostly cloudy
 Wind from ESE
Wind: ESE 9 mph , 15 km/h
Temperature: 15°C
Dew Point: 13°C
Humidity: 88%
Barometer: 1005 hPa
Clouds: Mostly cloudy
Visibility: 6 miles , 10 km
Cloud details: Mostly cloudy 3100 ft
2021/10/19 01:50 EGPI 190150Z AUTO 11008KT 060V130 9999 BKN031/// 15/13 Q1005
EGPU - Tiree, Inner Hebrides
Distance from station: W 172mi, 276km
Updated: 19/10/2021 02:50
Partly cloudy
Partly cloudy
 Wind from S
Wind: S 20 mph , 31 km/h
Temperature: 14°C
Dew Point: 13°C
Humidity: 94%
Barometer: 1003 hPa
Clouds: Partly cloudy
Visibility: 6 miles , 10 km
Cloud details: Partly cloudy 4500 ft
2021/10/19 01:50 EGPU 190150Z AUTO 19017KT 9999 SCT045/// 14/13 Q1003
 
EGPB - Sumburgh, Shetland
Distance from station: NNE 208mi, 332km
Updated: 19/10/2021 02:50
Mostly cloudy
Mostly cloudy
 Wind from WSW
Wind: WSW 12 mph , 19 km/h
Temperature: 12°C
Dew Point: 12°C
Humidity: 100%
Barometer: 1003 hPa
Clouds: Mostly cloudy
Visibility: 6 miles , 10 km
Cloud details: Partly cloudy 1000 ft
Mostly cloudy 3900 ft
2021/10/19 01:50 EGPB 190150Z AUTO 25010KT 9999 SCT010/// BKN039/// 12/12 Q1003
-->